sensor_id;sensor_type;location;lat;lon;timestamp;pressure;altitude;pressure_sealevel;temperature;humidity
85023;BME280;75348;43.126;-2.538;2024-01-06T00:00:28;99278.31;;;6.34;98.54
85023;BME280;75348;43.126;-2.538;2024-01-06T00:02:54;99270.72;;;6.31;99.31
85023;BME280;75348;43.126;-2.538;2024-01-06T00:05:23;99275.97;;;6.31;98.54
85023;BME280;75348;43.126;-2.538;2024-01-06T00:07:48;99282.38;;;6.28;99.12
85023;BME280;75348;43.126;-2.538;2024-01-06T00:10:14;99278.91;;;6.28;98.94
85023;BME280;75348;43.126;-2.538;2024-01-06T00:12:47;99284.59;;;6.33;99.16
85023;BME280;75348;43.126;-2.538;2024-01-06T00:15:13;99289.13;;;6.31;99.62
85023;BME280;75348;43.126;-2.538;2024-01-06T00:17:42;99289.97;;;6.41;98.81
85023;BME280;75348;43.126;-2.538;2024-01-06T00:20:08;99299.50;;;6.42;97.66
85023;BME280;75348;43.126;-2.538;2024-01-06T00:22:36;99284.69;;;6.50;99.26
85023;BME280;75348;43.126;-2.538;2024-01-06T00:25:01;99298.38;;;6.63;98.07
85023;BME280;75348;43.126;-2.538;2024-01-06T00:27:32;99309.56;;;6.74;98.90
85023;BME280;75348;43.126;-2.538;2024-01-06T00:29:59;99303.88;;;6.79;98.49
85023;BME280;75348;43.126;-2.538;2024-01-06T00:32:25;99294.63;;;6.56;99.02
85023;BME280;75348;43.126;-2.538;2024-01-06T00:34:50;99296.56;;;6.63;98.60
85023;BME280;75348;43.126;-2.538;2024-01-06T00:37:22;99293.81;;;6.46;97.87
85023;BME280;75348;43.126;-2.538;2024-01-06T00:39:49;99295.91;;;6.52;97.96
85023;BME280;75348;43.126;-2.538;2024-01-06T00:42:14;99308.22;;;6.61;99.30
85023;BME280;75348;43.126;-2.538;2024-01-06T00:44:40;99304.19;;;6.66;99.93
85023;BME280;75348;43.126;-2.538;2024-01-06T00:47:17;99319.81;;;6.77;100.00
85023;BME280;75348;43.126;-2.538;2024-01-06T00:49:42;99322.59;;;6.76;99.53
85023;BME280;75348;43.126;-2.538;2024-01-06T00:52:08;99335.75;;;6.76;99.14
85023;BME280;75348;43.126;-2.538;2024-01-06T00:54:36;99333.94;;;6.76;98.53
85023;BME280;75348;43.126;-2.538;2024-01-06T00:57:01;99311.97;;;6.59;98.97
85023;BME280;75348;43.126;-2.538;2024-01-06T00:59:30;99321.53;;;6.60;99.57
85023;BME280;75348;43.126;-2.538;2024-01-06T01:01:55;99336.84;;;6.73;99.76
85023;BME280;75348;43.126;-2.538;2024-01-06T01:04:21;99319.13;;;6.75;100.00
85023;BME280;75348;43.126;-2.538;2024-01-06T01:06:48;99323.69;;;6.73;99.15
85023;BME280;75348;43.126;-2.538;2024-01-06T01:09:14;99293.66;;;6.66;97.38
85023;BME280;75348;43.126;-2.538;2024-01-06T01:11:40;99301.66;;;6.74;99.06
85023;BME280;75348;43.126;-2.538;2024-01-06T01:14:18;99312.84;;;6.86;98.84
85023;BME280;75348;43.126;-2.538;2024-01-06T01:16:47;99302.75;;;6.81;98.42
85023;BME280;75348;43.126;-2.538;2024-01-06T01:19:12;99286.03;;;6.63;99.34
85023;BME280;75348;43.126;-2.538;2024-01-06T01:21:38;99280.75;;;6.63;99.01
85023;BME280;75348;43.126;-2.538;2024-01-06T01:24:08;99293.75;;;6.74;98.64
85023;BME280;75348;43.126;-2.538;2024-01-06T01:26:35;99280.25;;;6.51;99.61
85023;BME280;75348;43.126;-2.538;2024-01-06T01:29:01;99274.31;;;6.39;99.96
85023;BME280;75348;43.126;-2.538;2024-01-06T01:31:27;99295.88;;;6.62;99.96
85023;BME280;75348;43.126;-2.538;2024-01-06T01:33:59;99308.56;;;6.85;99.51
85023;BME280;75348;43.126;-2.538;2024-01-06T01:36:24;99297.66;;;6.70;98.94
85023;BME280;75348;43.126;-2.538;2024-01-06T01:38:50;99317.19;;;6.77;98.80
85023;BME280;75348;43.126;-2.538;2024-01-06T01:41:15;99309.84;;;6.71;99.11
85023;BME280;75348;43.126;-2.538;2024-01-06T01:43:44;99316.09;;;6.70;97.79
85023;BME280;75348;43.126;-2.538;2024-01-06T01:46:13;99317.56;;;6.82;97.46
85023;BME280;75348;43.126;-2.538;2024-01-06T01:48:38;99301.81;;;6.63;97.53
85023;BME280;75348;43.126;-2.538;2024-01-06T01:51:08;99325.38;;;6.65;98.39
85023;BME280;75348;43.126;-2.538;2024-01-06T01:53:37;99298.78;;;6.68;98.66
85023;BME280;75348;43.126;-2.538;2024-01-06T01:56:03;99315.53;;;6.67;98.46
85023;BME280;75348;43.126;-2.538;2024-01-06T01:58:30;99311.28;;;6.57;98.86
85023;BME280;75348;43.126;-2.538;2024-01-06T02:01:00;99337.84;;;6.72;99.47
85023;BME280;75348;43.126;-2.538;2024-01-06T02:03:29;99330.34;;;6.77;99.85
85023;BME280;75348;43.126;-2.538;2024-01-06T02:05:55;99343.38;;;6.69;99.54
85023;BME280;75348;43.126;-2.538;2024-01-06T02:08:23;99333.16;;;6.48;99.39
85023;BME280;75348;43.126;-2.538;2024-01-06T02:10:49;99350.06;;;6.55;100.00
85023;BME280;75348;43.126;-2.538;2024-01-06T02:13:14;99357.53;;;6.59;100.00
85023;BME280;75348;43.126;-2.538;2024-01-06T02:15:40;99356.16;;;6.64;99.20
85023;BME280;75348;43.126;-2.538;2024-01-06T02:18:07;99339.47;;;6.73;98.83
85023;BME280;75348;43.126;-2.538;2024-01-06T02:20:33;99344.75;;;6.73;99.33
85023;BME280;75348;43.126;-2.538;2024-01-06T02:22:58;99338.13;;;6.60;98.32
85023;BME280;75348;43.126;-2.538;2024-01-06T02:25:28;99347.56;;;6.63;99.42
85023;BME280;75348;43.126;-2.538;2024-01-06T02:27:54;99353.09;;;6.78;99.83
85023;BME280;75348;43.126;-2.538;2024-01-06T02:30:20;99365.38;;;6.87;99.52
85023;BME280;75348;43.126;-2.538;2024-01-06T02:32:48;99367.06;;;6.88;99.21
85023;BME280;75348;43.126;-2.538;2024-01-06T02:35:13;99358.22;;;6.80;98.28
85023;BME280;75348;43.126;-2.538;2024-01-06T02:37:39;99356.97;;;6.74;98.68
85023;BME280;75348;43.126;-2.538;2024-01-06T02:40:05;99355.59;;;6.70;98.98
85023;BME280;75348;43.126;-2.538;2024-01-06T02:42:32;99347.59;;;6.53;98.91
85023;BME280;75348;43.126;-2.538;2024-01-06T02:44:58;99360.88;;;6.42;99.51
85023;BME280;75348;43.126;-2.538;2024-01-06T02:47:23;99357.13;;;6.45;99.80
85023;BME280;75348;43.126;-2.538;2024-01-06T02:49:52;99375.69;;;6.53;99.86
85023;BME280;75348;43.126;-2.538;2024-01-06T02:52:17;99359.47;;;6.48;99.89
85023;BME280;75348;43.126;-2.538;2024-01-06T02:54:43;99379.97;;;6.72;99.48
85023;BME280;75348;43.126;-2.538;2024-01-06T02:57:11;99380.50;;;6.76;99.00
85023;BME280;75348;43.126;-2.538;2024-01-06T02:59:39;99395.59;;;6.93;99.39
85023;BME280;75348;43.126;-2.538;2024-01-06T03:02:05;99419.16;;;6.94;98.54
85023;BME280;75348;43.126;-2.538;2024-01-06T03:04:30;99412.91;;;6.95;98.57
85023;BME280;75348;43.126;-2.538;2024-01-06T03:06:56;99426.78;;;6.97;97.44
85023;BME280;75348;43.126;-2.538;2024-01-06T03:09:21;99429.13;;;7.00;95.90
85023;BME280;75348;43.126;-2.538;2024-01-06T03:11:47;99396.97;;;6.87;95.69
85023;BME280;75348;43.126;-2.538;2024-01-06T03:14:13;99421.53;;;6.97;95.52
85023;BME280;75348;43.126;-2.538;2024-01-06T03:16:39;99403.88;;;7.07;93.21
85023;BME280;75348;43.126;-2.538;2024-01-06T03:19:05;99378.28;;;6.90;95.05
85023;BME280;75348;43.126;-2.538;2024-01-06T03:21:31;99398.22;;;7.02;94.76
85023;BME280;75348;43.126;-2.538;2024-01-06T03:24:06;99386.84;;;6.92;95.99
85023;BME280;75348;43.126;-2.538;2024-01-06T03:26:35;99394.75;;;6.92;95.50
85023;BME280;75348;43.126;-2.538;2024-01-06T03:29:02;99387.44;;;6.86;97.60
85023;BME280;75348;43.126;-2.538;2024-01-06T03:31:29;99393.66;;;6.85;96.50
85023;BME280;75348;43.126;-2.538;2024-01-06T03:33:57;99396.31;;;6.76;97.90
85023;BME280;75348;43.126;-2.538;2024-01-06T03:36:22;99383.84;;;6.68;98.29
85023;BME280;75348;43.126;-2.538;2024-01-06T03:38:49;99411.28;;;6.75;98.59
85023;BME280;75348;43.126;-2.538;2024-01-06T03:41:17;99418.19;;;6.76;97.94
85023;BME280;75348;43.126;-2.538;2024-01-06T03:43:42;99424.88;;;6.80;99.23
85023;BME280;75348;43.126;-2.538;2024-01-06T03:46:08;99423.19;;;6.89;98.37
85023;BME280;75348;43.126;-2.538;2024-01-06T03:48:35;99422.91;;;6.82;99.56
85023;BME280;75348;43.126;-2.538;2024-01-06T03:51:03;99423.19;;;6.79;99.43
85023;BME280;75348;43.126;-2.538;2024-01-06T03:53:30;99419.03;;;6.86;99.47
85023;BME280;75348;43.126;-2.538;2024-01-06T03:55:56;99409.34;;;6.77;98.24
85023;BME280;75348;43.126;-2.538;2024-01-06T03:58:21;99406.31;;;6.72;98.02
85023;BME280;75348;43.126;-2.538;2024-01-06T04:00:50;99414.88;;;6.84;99.45
85023;BME280;75348;43.126;-2.538;2024-01-06T04:03:16;99433.47;;;6.73;99.57
85023;BME280;75348;43.126;-2.538;2024-01-06T04:05:44;99444.81;;;6.73;99.70
85023;BME280;75348;43.126;-2.538;2024-01-06T04:08:09;99426.56;;;6.63;98.63
85023;BME280;75348;43.126;-2.538;2024-01-06T04:10:35;99450.25;;;6.72;99.07
85023;BME280;75348;43.126;-2.538;2024-01-06T04:13:00;99437.34;;;6.60;96.62
85023;BME280;75348;43.126;-2.538;2024-01-06T04:15:26;99428.47;;;6.61;97.11
85023;BME280;75348;43.126;-2.538;2024-01-06T04:18:00;99453.41;;;6.57;97.39
85023;BME280;75348;43.126;-2.538;2024-01-06T04:20:30;99449.38;;;6.53;98.25
85023;BME280;75348;43.126;-2.538;2024-01-06T04:23:00;99473.78;;;6.73;98.00
85023;BME280;75348;43.126;-2.538;2024-01-06T04:25:26;99453.00;;;6.61;98.28
85023;BME280;75348;43.126;-2.538;2024-01-06T04:27:51;99478.63;;;6.68;96.79
85023;BME280;75348;43.126;-2.538;2024-01-06T04:30:19;99474.06;;;6.52;97.14
85023;BME280;75348;43.126;-2.538;2024-01-06T04:32:45;99477.50;;;6.43;98.37
85023;BME280;75348;43.126;-2.538;2024-01-06T04:35:13;99454.75;;;6.04;97.76
85023;BME280;75348;43.126;-2.538;2024-01-06T04:37:39;99457.56;;;6.50;96.77
85023;BME280;75348;43.126;-2.538;2024-01-06T04:40:05;99462.81;;;6.40;98.71
85023;BME280;75348;43.126;-2.538;2024-01-06T04:42:31;99458.94;;;6.35;99.20
85023;BME280;75348;43.126;-2.538;2024-01-06T04:44:56;99454.50;;;6.54;97.08
85023;BME280;75348;43.126;-2.538;2024-01-06T04:47:22;99453.69;;;6.35;97.78
85023;BME280;75348;43.126;-2.538;2024-01-06T04:49:49;99455.06;;;6.58;97.42
85023;BME280;75348;43.126;-2.538;2024-01-06T04:52:15;99444.13;;;6.53;96.38
85023;BME280;75348;43.126;-2.538;2024-01-06T04:54:40;99444.53;;;6.48;97.70
85023;BME280;75348;43.126;-2.538;2024-01-06T04:57:09;99451.56;;;6.29;98.11
85023;BME280;75348;43.126;-2.538;2024-01-06T04:59:34;99449.66;;;6.40;99.32
85023;BME280;75348;43.126;-2.538;2024-01-06T05:02:04;99453.53;;;6.27;99.10
85023;BME280;75348;43.126;-2.538;2024-01-06T05:04:32;99463.13;;;6.47;99.43
85023;BME280;75348;43.126;-2.538;2024-01-06T05:06:58;99443.94;;;6.17;98.47
85023;BME280;75348;43.126;-2.538;2024-01-06T05:09:26;99452.78;;;6.06;99.37
85023;BME280;75348;43.126;-2.538;2024-01-06T05:11:51;99459.16;;;6.04;99.96
85023;BME280;75348;43.126;-2.538;2024-01-06T05:14:17;99481.84;;;6.05;100.00
85023;BME280;75348;43.126;-2.538;2024-01-06T05:16:42;99442.41;;;6.05;99.14
85023;BME280;75348;43.126;-2.538;2024-01-06T05:19:10;99457.28;;;6.43;99.57
85023;BME280;75348;43.126;-2.538;2024-01-06T05:21:36;99464.31;;;6.24;98.53
85023;BME280;75348;43.126;-2.538;2024-01-06T05:24:01;99463.59;;;6.03;100.00
85023;BME280;75348;43.126;-2.538;2024-01-06T05:26:30;99496.88;;;6.32;100.00
85023;BME280;75348;43.126;-2.538;2024-01-06T05:28:56;99503.56;;;6.46;100.00
85023;BME280;75348;43.126;-2.538;2024-01-06T05:31:24;99500.94;;;6.46;100.00
85023;BME280;75348;43.126;-2.538;2024-01-06T05:33:49;99504.38;;;6.56;98.76
85023;BME280;75348;43.126;-2.538;2024-01-06T05:36:20;99475.03;;;6.51;98.08
85023;BME280;75348;43.126;-2.538;2024-01-06T05:38:48;99477.25;;;6.46;99.54
85023;BME280;75348;43.126;-2.538;2024-01-06T05:41:14;99488.84;;;6.43;99.16
85023;BME280;75348;43.126;-2.538;2024-01-06T05:43:39;99487.34;;;6.41;99.51
85023;BME280;75348;43.126;-2.538;2024-01-06T05:46:07;99481.22;;;6.40;98.82
85023;BME280;75348;43.126;-2.538;2024-01-06T05:48:33;99483.47;;;6.45;99.83
85023;BME280;75348;43.126;-2.538;2024-01-06T05:50:58;99484.31;;;6.45;99.08
85023;BME280;75348;43.126;-2.538;2024-01-06T05:53:24;99491.91;;;6.39;98.53
85023;BME280;75348;43.126;-2.538;2024-01-06T05:55:49;99507.97;;;6.36;99.54
85023;BME280;75348;43.126;-2.538;2024-01-06T05:58:27;99514.63;;;6.40;99.56
85023;BME280;75348;43.126;-2.538;2024-01-06T06:00:53;99496.75;;;6.53;99.52
85023;BME280;75348;43.126;-2.538;2024-01-06T06:03:21;99514.09;;;6.46;99.59
85023;BME280;75348;43.126;-2.538;2024-01-06T06:05:46;99509.66;;;6.56;99.04
85023;BME280;75348;43.126;-2.538;2024-01-06T06:08:15;99522.16;;;6.63;99.25
85023;BME280;75348;43.126;-2.538;2024-01-06T06:10:40;99523.38;;;6.59;99.35
85023;BME280;75348;43.126;-2.538;2024-01-06T06:13:18;99501.34;;;6.51;99.20
85023;BME280;75348;43.126;-2.538;2024-01-06T06:15:43;99508.28;;;6.52;98.05
85023;BME280;75348;43.126;-2.538;2024-01-06T06:18:13;99504.94;;;6.50;98.63
85023;BME280;75348;43.126;-2.538;2024-01-06T06:20:41;99532.47;;;6.27;98.49
85023;BME280;75348;43.126;-2.538;2024-01-06T06:23:12;99545.38;;;6.00;99.07
85023;BME280;75348;43.126;-2.538;2024-01-06T06:25:40;99539.22;;;6.20;99.70
85023;BME280;75348;43.126;-2.538;2024-01-06T06:28:05;99541.03;;;6.29;99.82
85023;BME280;75348;43.126;-2.538;2024-01-06T06:30:38;99550.41;;;6.52;97.81
85023;BME280;75348;43.126;-2.538;2024-01-06T06:33:04;99554.97;;;6.59;97.18
85023;BME280;75348;43.126;-2.538;2024-01-06T06:35:30;99547.34;;;6.65;96.20
85023;BME280;75348;43.126;-2.538;2024-01-06T06:37:58;99561.66;;;6.72;95.60
85023;BME280;75348;43.126;-2.538;2024-01-06T06:40:24;99547.09;;;6.78;94.81
85023;BME280;75348;43.126;-2.538;2024-01-06T06:42:52;99562.22;;;6.95;95.17
85023;BME280;75348;43.126;-2.538;2024-01-06T06:45:17;99544.44;;;6.59;97.42
85023;BME280;75348;43.126;-2.538;2024-01-06T06:47:50;99567.31;;;6.59;96.97
85023;BME280;75348;43.126;-2.538;2024-01-06T06:50:16;99569.94;;;6.59;97.80
85023;BME280;75348;43.126;-2.538;2024-01-06T06:52:42;99549.25;;;6.45;95.69
85023;BME280;75348;43.126;-2.538;2024-01-06T06:55:13;99568.88;;;6.70;97.14
85023;BME280;75348;43.126;-2.538;2024-01-06T06:57:40;99554.59;;;6.82;97.20
85023;BME280;75348;43.126;-2.538;2024-01-06T07:00:06;99529.34;;;6.61;95.75
85023;BME280;75348;43.126;-2.538;2024-01-06T07:02:34;99557.59;;;6.59;96.76
85023;BME280;75348;43.126;-2.538;2024-01-06T07:05:00;99556.94;;;6.76;97.83
85023;BME280;75348;43.126;-2.538;2024-01-06T07:07:25;99542.09;;;6.65;98.32
85023;BME280;75348;43.126;-2.538;2024-01-06T07:09:51;99551.53;;;6.77;99.14
85023;BME280;75348;43.126;-2.538;2024-01-06T07:12:17;99561.50;;;6.64;99.22
85023;BME280;75348;43.126;-2.538;2024-01-06T07:14:44;99572.88;;;6.74;99.64
85023;BME280;75348;43.126;-2.538;2024-01-06T07:17:09;99584.22;;;6.65;99.97
85023;BME280;75348;43.126;-2.538;2024-01-06T07:19:38;99569.38;;;6.55;100.00
85023;BME280;75348;43.126;-2.538;2024-01-06T07:22:04;99577.00;;;6.58;99.32
85023;BME280;75348;43.126;-2.538;2024-01-06T07:24:32;99563.25;;;6.06;97.08
85023;BME280;75348;43.126;-2.538;2024-01-06T07:26:57;99595.09;;;6.03;99.94
85023;BME280;75348;43.126;-2.538;2024-01-06T07:29:23;99614.44;;;6.32;100.00
85023;BME280;75348;43.126;-2.538;2024-01-06T07:31:48;99628.94;;;6.17;100.00
85023;BME280;75348;43.126;-2.538;2024-01-06T07:34:14;99629.84;;;6.36;99.94
85023;BME280;75348;43.126;-2.538;2024-01-06T07:36:42;99621.13;;;6.36;99.62
85023;BME280;75348;43.126;-2.538;2024-01-06T07:39:08;99614.03;;;6.27;98.61
85023;BME280;75348;43.126;-2.538;2024-01-06T07:41:36;99634.03;;;6.09;98.87
85023;BME280;75348;43.126;-2.538;2024-01-06T07:44:02;99645.81;;;6.15;98.74
85023;BME280;75348;43.126;-2.538;2024-01-06T07:46:35;99656.94;;;6.27;99.03
85023;BME280;75348;43.126;-2.538;2024-01-06T07:49:05;99679.41;;;6.31;99.55
85023;BME280;75348;43.126;-2.538;2024-01-06T07:51:33;99669.72;;;6.32;99.98
85023;BME280;75348;43.126;-2.538;2024-01-06T07:54:03;99664.88;;;6.37;99.77
85023;BME280;75348;43.126;-2.538;2024-01-06T07:56:32;99639.00;;;6.42;97.99
85023;BME280;75348;43.126;-2.538;2024-01-06T07:58:57;99631.41;;;6.48;96.74
85023;BME280;75348;43.126;-2.538;2024-01-06T08:01:23;99641.38;;;6.45;97.48
85023;BME280;75348;43.126;-2.538;2024-01-06T08:03:48;99634.28;;;6.36;97.45
85023;BME280;75348;43.126;-2.538;2024-01-06T08:06:14;99664.31;;;6.63;97.82
85023;BME280;75348;43.126;-2.538;2024-01-06T08:08:41;99643.66;;;6.29;95.63
85023;BME280;75348;43.126;-2.538;2024-01-06T08:11:17;99680.19;;;6.52;100.00
85023;BME280;75348;43.126;-2.538;2024-01-06T08:13:45;99691.94;;;6.39;100.00
85023;BME280;75348;43.126;-2.538;2024-01-06T08:16:10;99694.75;;;6.47;100.00
85023;BME280;75348;43.126;-2.538;2024-01-06T08:18:36;99714.88;;;6.37;99.18
85023;BME280;75348;43.126;-2.538;2024-01-06T08:21:02;99703.28;;;6.39;100.00
85023;BME280;75348;43.126;-2.538;2024-01-06T08:23:33;99698.16;;;6.38;99.96
85023;BME280;75348;43.126;-2.538;2024-01-06T08:25:58;99704.69;;;6.23;99.19
85023;BME280;75348;43.126;-2.538;2024-01-06T08:28:24;99678.59;;;6.40;99.42
85023;BME280;75348;43.126;-2.538;2024-01-06T08:30:52;99700.34;;;6.63;98.88
85023;BME280;75348;43.126;-2.538;2024-01-06T08:33:17;99724.94;;;6.52;98.42
85023;BME280;75348;43.126;-2.538;2024-01-06T08:35:43;99713.41;;;6.73;98.75
85023;BME280;75348;43.126;-2.538;2024-01-06T08:38:09;99711.22;;;6.78;97.93
85023;BME280;75348;43.126;-2.538;2024-01-06T08:40:35;99726.44;;;6.75;99.47
85023;BME280;75348;43.126;-2.538;2024-01-06T08:43:02;99717.44;;;6.77;99.65
85023;BME280;75348;43.126;-2.538;2024-01-06T08:45:28;99734.38;;;6.84;99.72
85023;BME280;75348;43.126;-2.538;2024-01-06T08:47:54;99751.06;;;6.64;99.32
85023;BME280;75348;43.126;-2.538;2024-01-06T08:50:20;99740.19;;;6.49;99.35
85023;BME280;75348;43.126;-2.538;2024-01-06T08:52:51;99783.97;;;6.79;99.87
85023;BME280;75348;43.126;-2.538;2024-01-06T08:55:16;99744.38;;;6.61;99.00
85023;BME280;75348;43.126;-2.538;2024-01-06T08:57:42;99737.47;;;6.60;98.25
85023;BME280;75348;43.126;-2.538;2024-01-06T09:00:16;99708.84;;;6.46;99.18
85023;BME280;75348;43.126;-2.538;2024-01-06T09:02:43;99737.47;;;6.60;98.68
85023;BME280;75348;43.126;-2.538;2024-01-06T09:05:09;99744.13;;;6.63;98.80
85023;BME280;75348;43.126;-2.538;2024-01-06T09:07:35;99758.47;;;6.50;98.31
85023;BME280;75348;43.126;-2.538;2024-01-06T09:10:00;99774.47;;;6.38;97.08
85023;BME280;75348;43.126;-2.538;2024-01-06T09:12:28;99772.97;;;6.45;99.46
85023;BME280;75348;43.126;-2.538;2024-01-06T09:14:55;99773.97;;;6.73;98.82
85023;BME280;75348;43.126;-2.538;2024-01-06T09:17:20;99773.34;;;6.90;97.57
85023;BME280;75348;43.126;-2.538;2024-01-06T09:19:48;99786.13;;;6.95;99.47
85023;BME280;75348;43.126;-2.538;2024-01-06T09:22:13;99784.94;;;7.08;99.50
85023;BME280;75348;43.126;-2.538;2024-01-06T09:24:41;99809.47;;;6.99;98.54
85023;BME280;75348;43.126;-2.538;2024-01-06T09:27:08;99809.19;;;6.72;97.75
85023;BME280;75348;43.126;-2.538;2024-01-06T09:29:33;99810.50;;;6.87;99.30
85023;BME280;75348;43.126;-2.538;2024-01-06T09:32:01;99812.06;;;6.69;98.54
85023;BME280;75348;43.126;-2.538;2024-01-06T09:34:27;99812.19;;;6.68;99.00
85023;BME280;75348;43.126;-2.538;2024-01-06T09:36:53;99808.56;;;6.60;100.00
85023;BME280;75348;43.126;-2.538;2024-01-06T09:39:20;99804.50;;;7.06;100.00
85023;BME280;75348;43.126;-2.538;2024-01-06T09:41:46;99815.00;;;6.96;99.45
85023;BME280;75348;43.126;-2.538;2024-01-06T09:44:11;99804.34;;;7.37;99.13
85023;BME280;75348;43.126;-2.538;2024-01-06T09:46:40;99808.31;;;7.98;96.64
85023;BME280;75348;43.126;-2.538;2024-01-06T09:49:09;99809.97;;;9.47;88.42
85023;BME280;75348;43.126;-2.538;2024-01-06T09:51:40;99805.16;;;10.04;86.78
85023;BME280;75348;43.126;-2.538;2024-01-06T09:54:09;99796.94;;;11.50;79.48
85023;BME280;75348;43.126;-2.538;2024-01-06T09:56:35;99774.75;;;11.75;79.12
85023;BME280;75348;43.126;-2.538;2024-01-06T09:59:07;99805.25;;;11.30;85.31
85023;BME280;75348;43.126;-2.538;2024-01-06T10:01:33;99792.84;;;10.55;82.48
85023;BME280;75348;43.126;-2.538;2024-01-06T10:03:58;99797.63;;;10.51;85.33
85023;BME280;75348;43.126;-2.538;2024-01-06T10:06:30;99802.94;;;9.29;84.42
85023;BME280;75348;43.126;-2.538;2024-01-06T10:08:56;99792.22;;;8.94;86.72
85023;BME280;75348;43.126;-2.538;2024-01-06T10:11:24;99805.25;;;8.59;88.15
85023;BME280;75348;43.126;-2.538;2024-01-06T10:13:54;99825.16;;;8.26;91.91
85023;BME280;75348;43.126;-2.538;2024-01-06T10:16:20;99823.44;;;8.06;93.24
85023;BME280;75348;43.126;-2.538;2024-01-06T10:18:46;99836.88;;;7.65;95.30
85023;BME280;75348;43.126;-2.538;2024-01-06T10:21:13;99832.19;;;7.30;94.93
85023;BME280;75348;43.126;-2.538;2024-01-06T10:23:43;99877.19;;;7.47;97.59
85023;BME280;75348;43.126;-2.538;2024-01-06T10:26:14;99886.06;;;7.37;96.27
85023;BME280;75348;43.126;-2.538;2024-01-06T10:28:42;99920.59;;;7.34;95.93
85023;BME280;75348;43.126;-2.538;2024-01-06T10:31:08;99936.50;;;7.53;95.21
85023;BME280;75348;43.126;-2.538;2024-01-06T10:33:37;99899.50;;;7.34;94.56
85023;BME280;75348;43.126;-2.538;2024-01-06T10:36:06;99916.66;;;7.28;91.50
85023;BME280;75348;43.126;-2.538;2024-01-06T10:38:36;99895.78;;;7.16;92.79
85023;BME280;75348;43.126;-2.538;2024-01-06T10:41:04;99880.50;;;7.10;92.61
85023;BME280;75348;43.126;-2.538;2024-01-06T10:43:38;99878.56;;;7.12;93.22
85023;BME280;75348;43.126;-2.538;2024-01-06T10:46:07;99876.13;;;7.20;92.40
85023;BME280;75348;43.126;-2.538;2024-01-06T10:48:38;99873.84;;;7.36;92.42
85023;BME280;75348;43.126;-2.538;2024-01-06T10:51:18;99843.72;;;7.29;92.87
85023;BME280;75348;43.126;-2.538;2024-01-06T10:53:44;99858.53;;;7.30;93.15
85023;BME280;75348;43.126;-2.538;2024-01-06T10:56:10;99859.78;;;7.26;95.55
85023;BME280;75348;43.126;-2.538;2024-01-06T10:58:51;99852.41;;;7.59;95.73
85023;BME280;75348;43.126;-2.538;2024-01-06T11:01:25;99829.38;;;7.61;94.87
85023;BME280;75348;43.126;-2.538;2024-01-06T11:03:52;99838.31;;;9.28;89.65
85023;BME280;75348;43.126;-2.538;2024-01-06T11:06:23;99845.94;;;12.28;82.14
85023;BME280;75348;43.126;-2.538;2024-01-06T11:09:17;99833.34;;;12.78;73.19
85023;BME280;75348;43.126;-2.538;2024-01-06T11:11:44;99858.84;;;9.70;82.69
85023;BME280;75348;43.126;-2.538;2024-01-06T11:14:22;99872.97;;;8.23;89.01
85023;BME280;75348;43.126;-2.538;2024-01-06T11:16:54;99871.44;;;7.62;91.49
85023;BME280;75348;43.126;-2.538;2024-01-06T11:19:42;99860.72;;;7.54;92.98
85023;BME280;75348;43.126;-2.538;2024-01-06T11:22:28;99862.56;;;7.63;92.97
85023;BME280;75348;43.126;-2.538;2024-01-06T11:25:07;99853.00;;;7.72;93.01
85023;BME280;75348;43.126;-2.538;2024-01-06T11:27:36;99833.69;;;7.62;93.78
85023;BME280;75348;43.126;-2.538;2024-01-06T11:30:27;99851.38;;;7.51;91.25
85023;BME280;75348;43.126;-2.538;2024-01-06T11:33:06;99862.94;;;7.50;94.99
85023;BME280;75348;43.126;-2.538;2024-01-06T11:35:33;99872.66;;;7.58;92.78
85023;BME280;75348;43.126;-2.538;2024-01-06T11:38:02;99870.13;;;7.48;93.60
85023;BME280;75348;43.126;-2.538;2024-01-06T11:40:36;99851.78;;;7.37;91.97
85023;BME280;75348;43.126;-2.538;2024-01-06T11:43:10;99856.16;;;7.27;93.07
85023;BME280;75348;43.126;-2.538;2024-01-06T11:45:42;99849.66;;;7.01;93.67
85023;BME280;75348;43.126;-2.538;2024-01-06T11:48:10;99869.78;;;7.02;96.87
85023;BME280;75348;43.126;-2.538;2024-01-06T11:50:38;99896.88;;;7.13;98.15
85023;BME280;75348;43.126;-2.538;2024-01-06T11:53:10;99900.25;;;6.95;97.09
85023;BME280;75348;43.126;-2.538;2024-01-06T11:55:40;99917.97;;;7.13;95.20
85023;BME280;75348;43.126;-2.538;2024-01-06T11:58:12;99909.63;;;7.08;95.18
85023;BME280;75348;43.126;-2.538;2024-01-06T12:00:43;99890.22;;;6.89;93.24
85023;BME280;75348;43.126;-2.538;2024-01-06T12:03:09;99849.00;;;6.59;93.83
85023;BME280;75348;43.126;-2.538;2024-01-06T12:05:35;99874.75;;;6.75;95.55
85023;BME280;75348;43.126;-2.538;2024-01-06T12:08:25;99875.66;;;6.85;95.89
85023;BME280;75348;43.126;-2.538;2024-01-06T12:11:03;99869.19;;;6.99;94.45
85023;BME280;75348;43.126;-2.538;2024-01-06T12:13:31;99851.13;;;7.53;93.92
85023;BME280;75348;43.126;-2.538;2024-01-06T12:15:57;99852.03;;;9.40;85.85
85023;BME280;75348;43.126;-2.538;2024-01-06T12:18:24;99849.16;;;11.24;80.88
85023;BME280;75348;43.126;-2.538;2024-01-06T12:20:56;99835.63;;;12.73;75.06
85023;BME280;75348;43.126;-2.538;2024-01-06T12:23:29;99837.94;;;11.05;81.37
85023;BME280;75348;43.126;-2.538;2024-01-06T12:26:02;99827.78;;;9.89;83.78
85023;BME280;75348;43.126;-2.538;2024-01-06T12:28:28;99834.44;;;8.67;86.98
85023;BME280;75348;43.126;-2.538;2024-01-06T12:30:53;99831.13;;;8.28;87.28
85023;BME280;75348;43.126;-2.538;2024-01-06T12:33:30;99817.22;;;9.09;85.89
85023;BME280;75348;43.126;-2.538;2024-01-06T12:36:00;99828.47;;;8.56;88.10
85023;BME280;75348;43.126;-2.538;2024-01-06T12:38:29;99812.94;;;8.15;85.53
85023;BME280;75348;43.126;-2.538;2024-01-06T12:40:55;99816.69;;;8.22;91.28
85023;BME280;75348;43.126;-2.538;2024-01-06T12:43:21;99817.53;;;8.13;88.69
85023;BME280;75348;43.126;-2.538;2024-01-06T12:45:49;99823.72;;;7.84;91.42
85023;BME280;75348;43.126;-2.538;2024-01-06T12:48:18;99823.31;;;7.79;93.02
85023;BME280;75348;43.126;-2.538;2024-01-06T12:50:43;99826.06;;;7.68;91.44
85023;BME280;75348;43.126;-2.538;2024-01-06T12:53:09;99824.06;;;7.52;92.62
85023;BME280;75348;43.126;-2.538;2024-01-06T12:55:37;99812.84;;;7.50;93.32
85023;BME280;75348;43.126;-2.538;2024-01-06T12:58:03;99804.91;;;7.50;89.11
85023;BME280;75348;43.126;-2.538;2024-01-06T13:00:36;99801.34;;;7.69;92.98
85023;BME280;75348;43.126;-2.538;2024-01-06T13:03:02;99811.09;;;7.78;95.43